createdAt,value
2016-10-23T00:00:27.979Z,0
2016-10-23T00:01:28.009Z,0
2016-10-23T00:02:28.022Z,0
2016-10-23T00:03:28.039Z,0
2016-10-23T00:04:28.054Z,0
2016-10-23T00:05:28.080Z,0
2016-10-23T00:06:28.089Z,0
2016-10-23T00:07:28.097Z,0
2016-10-23T00:08:28.107Z,0
2016-10-23T00:09:28.119Z,0
2016-10-23T00:10:28.140Z,0
2016-10-23T00:11:28.155Z,0
2016-10-23T00:12:28.175Z,0
2016-10-23T00:13:28.187Z,0
2016-10-23T00:14:28.205Z,0
2016-10-23T00:15:28.224Z,0
2016-10-23T00:16:28.240Z,0
2016-10-23T00:17:28.268Z,0
2016-10-23T00:18:28.280Z,0
2016-10-23T00:19:28.286Z,0
2016-10-23T00:20:28.309Z,0
2016-10-23T00:21:28.320Z,0
2016-10-23T00:22:28.330Z,0
2016-10-23T00:23:28.375Z,0
2016-10-23T00:24:28.366Z,0
2016-10-23T00:25:28.689Z,0
2016-10-23T00:26:28.396Z,0
2016-10-23T00:27:28.406Z,0
2016-10-23T00:28:28.541Z,0
2016-10-23T00:29:28.541Z,0
2016-10-23T00:30:28.554Z,0
2016-10-23T00:31:28.563Z,0
2016-10-23T00:32:28.485Z,0
2016-10-23T00:33:28.506Z,0
2016-10-23T00:34:28.529Z,0
2016-10-23T00:35:28.538Z,0
2016-10-23T00:36:28.548Z,0
2016-10-23T00:37:28.571Z,0
2016-10-23T00:38:28.588Z,0
2016-10-23T00:39:28.604Z,0
2016-10-23T00:40:28.622Z,0
2016-10-23T00:41:28.636Z,0
2016-10-23T00:42:28.645Z,0
2016-10-23T00:43:28.655Z,0
2016-10-23T00:44:28.684Z,0
2016-10-23T00:45:29.004Z,0
2016-10-23T00:46:28.728Z,0
2016-10-23T00:47:28.720Z,0
2016-10-23T00:48:28.752Z,0
2016-10-23T00:49:28.755Z,0
2016-10-23T00:50:28.788Z,0
2016-10-23T00:51:28.824Z,0
2016-10-23T00:52:28.807Z,0
2016-10-23T00:53:28.818Z,0
2016-10-23T00:54:28.831Z,0
2016-10-23T00:55:28.863Z,0
2016-10-23T00:56:28.877Z,0
2016-10-23T00:57:28.896Z,0
2016-10-23T00:58:28.911Z,0
2016-10-23T00:59:28.927Z,0
2016-10-23T01:00:28.944Z,0
2016-10-23T01:01:28.961Z,0
2016-10-23T01:02:28.971Z,0
2016-10-23T01:03:28.991Z,0
2016-10-23T01:04:29.008Z,0
2016-10-23T01:05:29.032Z,0
2016-10-23T01:06:29.130Z,0
2016-10-23T01:07:29.140Z,0
2016-10-23T01:08:29.173Z,0
2016-10-23T01:09:29.174Z,0
2016-10-23T01:10:29.182Z,0
2016-10-23T01:11:29.196Z,0
2016-10-23T01:12:29.200Z,0
2016-10-23T01:13:29.208Z,0
2016-10-23T01:14:29.206Z,0
2016-10-23T01:15:29.214Z,0
2016-10-23T01:16:29.222Z,0
2016-10-23T01:17:29.233Z,0
2016-10-23T01:18:29.241Z,0
2016-10-23T01:19:29.302Z,0
2016-10-23T01:20:29.309Z,0
2016-10-23T01:21:29.316Z,0
2016-10-23T01:22:29.327Z,0
2016-10-23T01:23:29.333Z,0
2016-10-23T01:24:29.334Z,0
2016-10-23T01:25:29.344Z,0
2016-10-23T01:26:29.354Z,0
2016-10-23T01:27:29.362Z,0
2016-10-23T01:28:29.482Z,0
2016-10-23T01:29:29.481Z,0
2016-10-23T01:30:29.490Z,0
2016-10-23T01:31:29.425Z,0
2016-10-23T01:32:29.436Z,0
2016-10-23T01:33:29.457Z,0
2016-10-23T01:34:29.482Z,0
2016-10-23T01:35:29.522Z,0
2016-10-23T01:36:29.505Z,0
2016-10-23T01:37:29.525Z,0
2016-10-23T01:38:29.533Z,0
2016-10-23T01:39:29.545Z,0
2016-10-23T01:40:29.572Z,0
2016-10-23T01:41:29.586Z,0
2016-10-23T01:42:29.593Z,0
2016-10-23T01:43:29.625Z,0
2016-10-23T01:44:29.632Z,0
2016-10-23T01:45:29.690Z,0
2016-10-23T01:46:29.666Z,0
2016-10-23T01:47:29.680Z,0
2016-10-23T01:48:29.722Z,0
2016-10-23T01:49:29.742Z,0
2016-10-23T01:50:29.723Z,0
2016-10-23T01:51:29.746Z,0
2016-10-23T01:52:29.754Z,0
2016-10-23T01:53:29.764Z,0
2016-10-23T01:54:30.103Z,0
2016-10-23T01:55:29.797Z,0
2016-10-23T01:56:29.816Z,0
2016-10-23T01:57:29.828Z,0
2016-10-23T01:58:29.856Z,0
2016-10-23T01:59:29.865Z,0
2016-10-23T02:00:29.871Z,0
2016-10-23T02:01:29.894Z,0
2016-10-23T02:02:29.903Z,0
2016-10-23T02:03:29.924Z,0
2016-10-23T02:04:29.943Z,0
2016-10-23T02:05:29.991Z,0
2016-10-23T02:06:29.968Z,0
2016-10-23T02:07:29.987Z,0
2016-10-23T02:08:30.000Z,0
2016-10-23T02:09:30.020Z,0
2016-10-23T02:10:30.035Z,0
2016-10-23T02:11:30.083Z,0
2016-10-23T02:12:30.099Z,0
2016-10-23T02:13:30.078Z,0
2016-10-23T02:14:30.096Z,0
2016-10-23T02:15:30.110Z,0
2016-10-23T02:16:30.125Z,0
2016-10-23T02:17:30.138Z,0
2016-10-23T02:18:30.150Z,0
2016-10-23T02:19:30.174Z,0
2016-10-23T02:20:30.189Z,0
2016-10-23T02:21:30.202Z,0
2016-10-23T02:22:30.217Z,0
2016-10-23T02:23:30.265Z,0
2016-10-23T02:24:30.253Z,0
2016-10-23T02:25:30.269Z,0
2016-10-23T02:26:30.316Z,0
2016-10-23T02:27:30.299Z,0
2016-10-23T02:28:30.344Z,0
2016-10-23T02:29:30.330Z,0
2016-10-23T02:30:30.339Z,0
2016-10-23T02:31:30.355Z,0
2016-10-23T02:32:30.402Z,0
2016-10-23T02:33:30.388Z,0
2016-10-23T02:34:30.408Z,0
2016-10-23T02:35:30.428Z,0
2016-10-23T02:36:30.434Z,0
2016-10-23T02:37:30.447Z,0
2016-10-23T02:38:30.515Z,0
2016-10-23T02:39:30.483Z,0
2016-10-23T02:40:30.532Z,0
2016-10-23T02:41:30.506Z,0
2016-10-23T02:42:30.526Z,0
2016-10-23T02:43:30.534Z,0
2016-10-23T02:44:30.552Z,0
2016-10-23T02:45:30.567Z,0
2016-10-23T02:46:30.589Z,0
2016-10-23T02:47:30.598Z,0
2016-10-23T02:48:30.619Z,0
2016-10-23T02:49:30.627Z,0
2016-10-23T02:50:30.654Z,0
2016-10-23T02:51:30.694Z,0
2016-10-23T02:52:30.670Z,0
2016-10-23T02:53:30.689Z,0
2016-10-23T02:54:30.704Z,0
2016-10-23T02:55:30.718Z,0
2016-10-23T02:56:30.735Z,0
2016-10-23T02:57:30.751Z,0
2016-10-23T02:58:30.763Z,0
2016-10-23T02:59:30.778Z,0
2016-10-23T03:00:30.801Z,0
2016-10-23T03:01:30.809Z,0
2016-10-23T03:02:30.823Z,0
2016-10-23T03:03:30.841Z,0
2016-10-23T03:04:30.856Z,0
2016-10-23T03:05:30.871Z,0
2016-10-23T03:06:30.890Z,0
2016-10-23T03:07:30.903Z,0
2016-10-23T03:08:30.916Z,0
2016-10-23T03:09:30.941Z,0
2016-10-23T03:10:31.066Z,0
2016-10-23T03:11:31.070Z,0
2016-10-23T03:12:31.418Z,0
2016-10-23T03:13:31.428Z,0
2016-10-23T03:14:31.097Z,0
2016-10-23T03:15:31.117Z,0
2016-10-23T03:16:31.126Z,0
2016-10-23T03:17:31.143Z,0
2016-10-23T03:18:31.221Z,0
2016-10-23T03:19:31.231Z,0
2016-10-23T03:20:31.237Z,0
2016-10-23T03:21:31.236Z,0
2016-10-23T03:22:31.245Z,0
2016-10-23T03:23:31.254Z,0
2016-10-23T03:24:31.262Z,0
2016-10-23T03:25:31.271Z,0
2016-10-23T03:26:31.281Z,0
2016-10-23T03:27:31.413Z,0
2016-10-23T03:28:31.421Z,0
2016-10-23T03:29:31.429Z,0
2016-10-23T03:30:31.343Z,0
2016-10-23T03:31:31.343Z,0
2016-10-23T03:32:31.350Z,0
2016-10-23T03:33:31.362Z,0
2016-10-23T03:34:31.410Z,0
2016-10-23T03:35:31.419Z,0
2016-10-23T03:36:31.450Z,0
2016-10-23T03:37:31.429Z,0
2016-10-23T03:38:31.401Z,0
2016-10-23T03:39:31.415Z,0
2016-10-23T03:40:31.424Z,0
2016-10-23T03:41:31.422Z,0
2016-10-23T03:42:31.435Z,0
2016-10-23T03:43:31.485Z,0
2016-10-23T03:44:31.782Z,0
2016-10-23T03:45:31.481Z,0
2016-10-23T03:46:31.493Z,0
2016-10-23T03:47:31.575Z,0
2016-10-23T03:48:31.531Z,0
2016-10-23T03:49:31.575Z,0
2016-10-23T03:50:31.553Z,0
2016-10-23T03:51:31.681Z,0
2016-10-23T03:52:31.663Z,0
2016-10-23T03:53:31.680Z,0
2016-10-23T03:54:31.783Z,0
2016-10-23T03:55:31.716Z,0
2016-10-23T03:56:31.743Z,0
2016-10-23T03:57:31.734Z,0
2016-10-23T03:58:31.752Z,0
2016-10-23T03:59:31.811Z,0
2016-10-23T04:00:31.757Z,0
2016-10-23T04:01:31.763Z,0
2016-10-23T04:02:31.769Z,0
2016-10-23T04:03:31.755Z,0
2016-10-23T04:04:31.779Z,0
2016-10-23T04:05:31.791Z,0
2016-10-23T04:06:31.800Z,0
2016-10-23T04:07:32.141Z,0
2016-10-23T04:08:31.827Z,0
2016-10-23T04:09:31.843Z,0
2016-10-23T04:10:31.861Z,0
2016-10-23T04:11:31.876Z,0
2016-10-23T04:12:31.893Z,0
2016-10-23T04:13:32.323Z,0
2016-10-23T04:14:32.235Z,0
2016-10-23T04:15:31.931Z,0
2016-10-23T04:16:31.956Z,0
2016-10-23T04:17:31.964Z,0
2016-10-23T04:18:31.982Z,0
2016-10-23T04:19:32.001Z,0
2016-10-23T04:20:32.329Z,0
2016-10-23T04:21:32.022Z,0
2016-10-23T04:22:32.044Z,0
2016-10-23T04:23:32.049Z,0
2016-10-23T04:24:32.077Z,0
2016-10-23T04:25:32.125Z,0
2016-10-23T04:26:32.102Z,0
2016-10-23T04:27:32.115Z,0
2016-10-23T04:28:32.127Z,0
2016-10-23T04:29:32.266Z,0
2016-10-23T04:30:32.589Z,0
2016-10-23T04:31:32.285Z,0
2016-10-23T04:32:32.282Z,0
2016-10-23T04:33:32.330Z,0
2016-10-23T04:34:32.432Z,0
2016-10-23T04:35:32.387Z,0
2016-10-23T04:36:32.341Z,0
2016-10-23T04:37:32.416Z,0
2016-10-23T04:38:32.452Z,0
2016-10-23T04:39:32.567Z,0
2016-10-23T04:40:32.636Z,0
2016-10-23T04:41:32.363Z,0
2016-10-23T04:42:32.666Z,0
2016-10-23T04:43:32.364Z,0
2016-10-23T04:44:32.684Z,0
2016-10-23T04:45:32.388Z,0
2016-10-23T04:46:32.403Z,0
2016-10-23T04:47:32.421Z,0
2016-10-23T04:48:32.437Z,0
2016-10-23T04:49:32.786Z,0
2016-10-23T04:50:32.460Z,0
2016-10-23T04:51:32.485Z,0
2016-10-23T04:52:32.804Z,0
2016-10-23T04:53:32.513Z,0
2016-10-23T04:54:32.841Z,0
2016-10-23T04:55:32.860Z,0
2016-10-23T04:56:32.557Z,0
2016-10-23T04:57:32.888Z,0
2016-10-23T04:58:32.582Z,0
2016-10-23T04:59:32.597Z,0
2016-10-23T05:00:32.620Z,0
2016-10-23T05:01:32.631Z,0
2016-10-23T05:02:32.652Z,0
2016-10-23T05:03:32.662Z,0
2016-10-23T05:04:32.672Z,0
2016-10-23T05:05:32.694Z,0
2016-10-23T05:06:32.702Z,0
2016-10-23T05:07:32.716Z,0
2016-10-23T05:08:32.727Z,0
2016-10-23T05:09:32.750Z,0
2016-10-23T05:10:33.079Z,0
2016-10-23T05:11:32.781Z,0
2016-10-23T05:12:32.793Z,0
2016-10-23T05:13:32.813Z,0
2016-10-23T05:14:32.827Z,0
2016-10-23T05:15:32.841Z,0
2016-10-23T05:16:32.858Z,0
2016-10-23T05:17:32.869Z,0
2016-10-23T05:18:32.886Z,0
2016-10-23T05:19:32.905Z,0
2016-10-23T05:20:32.913Z,0
2016-10-23T05:21:32.936Z,0
2016-10-23T05:22:32.948Z,0
2016-10-23T05:23:32.958Z,0
2016-10-23T05:24:32.975Z,0
2016-10-23T05:25:33.031Z,0
2016-10-23T05:26:33.007Z,0
2016-10-23T05:27:33.034Z,4
2016-10-23T05:28:33.034Z,0
2016-10-23T05:29:33.051Z,0
2016-10-23T05:30:33.066Z,4
2016-10-23T05:31:33.078Z,4
2016-10-23T05:32:33.101Z,4
2016-10-23T05:33:33.113Z,4
2016-10-23T05:34:33.135Z,4
2016-10-23T05:35:33.146Z,4
2016-10-23T05:36:33.158Z,8
2016-10-23T05:37:33.206Z,4
2016-10-23T05:38:33.194Z,8
2016-10-23T05:39:33.209Z,8
2016-10-23T05:40:33.218Z,8
2016-10-23T05:41:33.235Z,8
2016-10-23T05:42:33.250Z,12
2016-10-23T05:43:33.267Z,16
2016-10-23T05:44:33.303Z,16
2016-10-23T05:45:33.290Z,16
2016-10-23T05:46:33.309Z,20
2016-10-23T05:47:33.324Z,20
2016-10-23T05:48:33.339Z,24
2016-10-23T05:49:33.355Z,28
2016-10-23T05:50:33.369Z,28
2016-10-23T05:51:33.392Z,28
2016-10-23T05:52:33.401Z,28
2016-10-23T05:53:33.413Z,32
2016-10-23T05:54:33.424Z,36
2016-10-23T05:55:33.450Z,36
2016-10-23T05:56:33.467Z,40
2016-10-23T05:57:33.475Z,44
2016-10-23T05:58:33.487Z,44
2016-10-23T05:59:33.553Z,48
2016-10-23T06:00:33.519Z,52
2016-10-23T06:01:33.541Z,56
2016-10-23T06:02:33.558Z,56
2016-10-23T06:03:33.577Z,60
2016-10-23T06:04:33.582Z,68
2016-10-23T06:05:33.604Z,72
2016-10-23T06:06:33.650Z,80
2016-10-23T06:07:33.626Z,84
2016-10-23T06:08:33.649Z,88
2016-10-23T06:09:33.665Z,88
2016-10-23T06:10:33.673Z,92
2016-10-23T06:11:33.692Z,96
2016-10-23T06:12:33.708Z,104
2016-10-23T06:13:33.721Z,112
2016-10-23T06:14:33.741Z,116
2016-10-23T06:15:33.755Z,120
2016-10-23T06:16:33.781Z,124
2016-10-23T06:17:33.787Z,128
2016-10-23T06:18:33.834Z,132
2016-10-23T06:19:33.847Z,136
2016-10-23T06:20:33.834Z,140
2016-10-23T06:21:33.864Z,148
2016-10-23T06:22:33.863Z,156
2016-10-23T06:23:33.871Z,160
2016-10-23T06:24:33.883Z,160
2016-10-23T06:25:33.903Z,164
2016-10-23T06:26:33.958Z,168
2016-10-23T06:27:33.931Z,176
2016-10-23T06:28:33.951Z,176
2016-10-23T06:29:33.967Z,176
2016-10-23T06:30:33.981Z,180
2016-10-23T06:31:34.112Z,184
2016-10-23T06:32:34.138Z,184
2016-10-23T06:33:34.142Z,188
2016-10-23T06:34:34.162Z,192
2016-10-23T06:35:34.055Z,204
2016-10-23T06:36:34.071Z,208
2016-10-23T06:37:34.085Z,216
2016-10-23T06:38:34.224Z,216
2016-10-23T06:39:34.140Z,220
2016-10-23T06:40:34.129Z,228
2016-10-23T06:41:34.197Z,240
2016-10-23T06:42:34.163Z,244
2016-10-23T06:43:34.263Z,244
2016-10-23T06:44:34.197Z,248
2016-10-23T06:45:34.240Z,252
2016-10-23T06:46:34.234Z,252
2016-10-23T06:47:34.239Z,260
2016-10-23T06:48:34.268Z,264
2016-10-23T06:49:34.279Z,276
2016-10-23T06:50:34.403Z,276
2016-10-23T06:51:34.303Z,280
2016-10-23T06:52:34.355Z,288
2016-10-23T06:53:34.331Z,288
2016-10-23T06:54:34.345Z,288
2016-10-23T06:55:34.462Z,292
2016-10-23T06:56:34.398Z,296
2016-10-23T06:57:34.510Z,296
2016-10-23T06:58:34.408Z,304
2016-10-23T06:59:34.546Z,300
2016-10-23T07:00:34.444Z,280
2016-10-23T07:01:34.582Z,276
2016-10-23T07:02:34.550Z,272
2016-10-23T07:03:34.486Z,264
2016-10-23T07:04:34.505Z,268
2016-10-23T07:05:34.516Z,260
2016-10-23T07:06:34.535Z,248
2016-10-23T07:07:34.551Z,248
2016-10-23T07:08:34.914Z,280
2016-10-23T07:09:34.586Z,336
2016-10-23T07:10:34.602Z,348
2016-10-23T07:11:34.725Z,340
2016-10-23T07:12:34.674Z,328
2016-10-23T07:13:34.642Z,328
2016-10-23T07:14:34.778Z,336
2016-10-23T07:15:34.676Z,348
2016-10-23T07:16:34.692Z,356
2016-10-23T07:17:34.707Z,376
2016-10-23T07:18:34.714Z,408
2016-10-23T07:19:34.862Z,416
2016-10-23T07:20:34.869Z,424
2016-10-23T07:21:34.770Z,424
2016-10-23T07:22:34.909Z,412
2016-10-23T07:23:34.909Z,404
2016-10-23T07:24:34.902Z,400
2016-10-23T07:25:34.829Z,408
2016-10-23T07:26:34.841Z,412
2016-10-23T07:27:34.851Z,400
2016-10-23T07:28:35.224Z,392
2016-10-23T07:29:35.003Z,396
2016-10-23T07:30:34.915Z,388
2016-10-23T07:31:35.041Z,368
2016-10-23T07:32:34.930Z,364
2016-10-23T07:33:34.950Z,364
2016-10-23T07:34:35.082Z,388
2016-10-23T07:35:34.981Z,380
2016-10-23T07:36:35.121Z,392
2016-10-23T07:37:35.011Z,404
2016-10-23T07:38:35.214Z,420
2016-10-23T07:39:35.048Z,432
2016-10-23T07:40:35.054Z,456
2016-10-23T07:41:35.081Z,496
2016-10-23T07:42:35.088Z,532
2016-10-23T07:43:35.105Z,568
2016-10-23T07:44:35.119Z,596
2016-10-23T07:45:35.262Z,616
2016-10-23T07:46:35.149Z,644
2016-10-23T07:47:35.169Z,636
2016-10-23T07:48:35.177Z,660
2016-10-23T07:49:35.309Z,672
2016-10-23T07:50:35.216Z,676
2016-10-23T07:51:35.264Z,708
2016-10-23T07:52:35.282Z,732
2016-10-23T07:53:35.256Z,720
2016-10-23T07:54:35.315Z,744
2016-10-23T07:55:35.386Z,744
2016-10-23T07:56:35.303Z,744
2016-10-23T07:57:35.638Z,736
2016-10-23T07:58:35.432Z,724
2016-10-23T07:59:35.354Z,724
2016-10-23T08:00:35.373Z,724
2016-10-23T08:01:35.785Z,728
2016-10-23T08:02:35.416Z,756
2016-10-23T08:03:35.409Z,808
2016-10-23T08:04:35.486Z,824
2016-10-23T08:05:35.446Z,816
2016-10-23T08:06:35.464Z,792
2016-10-23T08:07:35.475Z,828
2016-10-23T08:08:35.497Z,840
2016-10-23T08:09:35.507Z,844
2016-10-23T08:10:35.523Z,864
2016-10-23T08:11:35.540Z,884
2016-10-23T08:12:35.569Z,904
2016-10-23T08:13:35.572Z,920
2016-10-23T08:14:35.625Z,900
2016-10-23T08:15:35.607Z,876
2016-10-23T08:16:35.616Z,872
2016-10-23T08:17:35.636Z,916
2016-10-23T08:18:35.652Z,928
2016-10-23T08:19:35.707Z,924
2016-10-23T08:20:35.685Z,940
2016-10-23T08:21:35.703Z,964
2016-10-23T08:22:35.714Z,968
2016-10-23T08:23:35.736Z,960
2016-10-23T08:24:35.749Z,940
2016-10-23T08:25:35.766Z,956
2016-10-23T08:26:35.778Z,988
2016-10-23T08:27:35.797Z,1008
2016-10-23T08:28:35.817Z,1032
2016-10-23T08:29:35.945Z,1032
2016-10-23T08:30:35.841Z,1008
2016-10-23T08:31:35.964Z,976
2016-10-23T08:32:35.877Z,956
2016-10-23T08:33:35.888Z,976
2016-10-23T08:34:35.955Z,976
2016-10-23T08:35:35.917Z,956
2016-10-23T08:36:35.948Z,952
2016-10-23T08:37:35.949Z,948
2016-10-23T08:38:35.968Z,956
2016-10-23T08:39:35.991Z,972
2016-10-23T08:40:36.004Z,976
2016-10-23T08:41:36.014Z,1036
2016-10-23T08:42:36.065Z,1092
2016-10-23T08:43:36.053Z,1100
2016-10-23T08:44:36.061Z,1088
2016-10-23T08:45:36.124Z,1068
2016-10-23T08:46:36.098Z,1052
2016-10-23T08:47:36.118Z,1072
2016-10-23T08:48:36.132Z,1088
2016-10-23T08:49:36.148Z,1092
2016-10-23T08:50:36.156Z,1108
2016-10-23T08:51:36.173Z,1140
2016-10-23T08:52:36.198Z,1120
2016-10-23T08:53:36.204Z,1108
2016-10-23T08:54:36.232Z,1060
2016-10-23T08:55:36.236Z,1068
2016-10-23T08:56:36.259Z,1048
2016-10-23T08:57:36.275Z,984
2016-10-23T08:58:36.291Z,896
2016-10-23T08:59:36.344Z,888
2016-10-23T09:00:36.324Z,960
2016-10-23T09:01:36.351Z,980
2016-10-23T09:02:36.351Z,992
2016-10-23T09:03:36.375Z,1040
2016-10-23T09:04:36.436Z,1104
2016-10-23T09:05:36.409Z,1164
2016-10-23T09:06:36.433Z,1200
2016-10-23T09:07:36.439Z,1232
2016-10-23T09:08:36.452Z,1220
2016-10-23T09:09:36.469Z,1200
2016-10-23T09:10:36.481Z,1220
2016-10-23T09:11:36.496Z,1256
2016-10-23T09:12:36.519Z,1252
2016-10-23T09:13:36.540Z,1192
2016-10-23T09:14:36.549Z,1188
2016-10-23T09:15:36.569Z,1216
2016-10-23T09:16:36.581Z,1240
2016-10-23T09:17:36.608Z,1292
2016-10-23T09:18:36.614Z,1272
2016-10-23T09:19:36.633Z,1192
2016-10-23T09:20:36.644Z,1104
2016-10-23T09:21:36.676Z,1088
2016-10-23T09:22:36.682Z,1208
2016-10-23T09:23:36.699Z,1236
2016-10-23T09:24:36.721Z,1256
2016-10-23T09:25:36.733Z,1284
2016-10-23T09:26:36.747Z,1264
2016-10-23T09:27:36.766Z,1236
2016-10-23T09:28:36.783Z,1236
2016-10-23T09:29:36.798Z,1244
2016-10-23T09:30:36.814Z,1224
2016-10-23T09:31:36.830Z,1176
2016-10-23T09:32:36.844Z,1140
2016-10-23T09:33:36.860Z,1152
2016-10-23T09:34:36.883Z,1228
2016-10-23T09:35:36.899Z,1280
2016-10-23T09:36:36.915Z,1288
2016-10-23T09:37:36.930Z,1288
2016-10-23T09:38:36.944Z,1276
2016-10-23T09:39:36.961Z,1256
2016-10-23T09:40:36.984Z,1256
2016-10-23T09:41:36.996Z,1260
2016-10-23T09:42:37.019Z,1256
2016-10-23T09:43:37.030Z,1260
2016-10-23T09:44:37.046Z,1276
2016-10-23T09:45:37.060Z,1272
2016-10-23T09:46:37.083Z,1248
2016-10-23T09:47:37.099Z,1236
2016-10-23T09:48:37.123Z,1256
2016-10-23T09:49:37.134Z,1272
2016-10-23T09:50:37.149Z,1304
2016-10-23T09:51:37.165Z,1328
2016-10-23T09:52:37.182Z,1320
2016-10-23T09:53:37.200Z,1320
2016-10-23T09:54:37.219Z,1344
2016-10-23T09:55:37.228Z,1376
2016-10-23T09:56:37.244Z,1388
2016-10-23T09:57:37.265Z,1416
2016-10-23T09:58:37.288Z,1440
2016-10-23T09:59:37.312Z,1460
2016-10-23T10:00:37.315Z,1504
2016-10-23T10:01:37.340Z,1516
2016-10-23T10:02:37.356Z,1520
2016-10-23T10:03:37.384Z,1520
2016-10-23T10:04:37.383Z,1460
2016-10-23T10:05:37.404Z,1464
2016-10-23T10:06:37.415Z,1540
2016-10-23T10:07:37.442Z,1552
2016-10-23T10:08:37.462Z,1520
2016-10-23T10:09:37.469Z,1512
2016-10-23T10:10:37.486Z,1548
2016-10-23T10:11:37.504Z,1564
2016-10-23T10:12:37.517Z,1580
2016-10-23T10:13:37.544Z,1560
2016-10-23T10:14:37.559Z,1560
2016-10-23T10:15:37.890Z,1552
2016-10-23T10:16:37.603Z,1540
2016-10-23T10:17:37.612Z,1540
2016-10-23T10:18:37.623Z,1560
2016-10-23T10:19:37.661Z,1584
2016-10-23T10:20:37.670Z,1612
2016-10-23T10:21:37.677Z,1584
2016-10-23T10:22:37.695Z,1556
2016-10-23T10:23:37.714Z,1568
2016-10-23T10:24:37.727Z,1572
2016-10-23T10:25:37.745Z,1532
2016-10-23T10:26:37.773Z,1516
2016-10-23T10:27:37.779Z,1500
2016-10-23T10:28:37.803Z,1500
2016-10-23T10:29:37.821Z,1528
2016-10-23T10:30:37.832Z,1548
2016-10-23T10:31:37.861Z,1532
2016-10-23T10:32:37.865Z,1500
2016-10-23T10:33:37.891Z,1508
2016-10-23T10:34:37.902Z,1500
2016-10-23T10:35:38.244Z,1484
2016-10-23T10:36:37.941Z,1456
2016-10-23T10:37:37.965Z,1452
2016-10-23T10:38:37.987Z,1444
2016-10-23T10:39:37.991Z,1444
2016-10-23T10:40:38.007Z,1472
2016-10-23T10:41:38.023Z,1520
2016-10-23T10:42:38.042Z,1548
2016-10-23T10:43:38.062Z,1552
2016-10-23T10:44:38.080Z,1548
2016-10-23T10:45:38.100Z,1564
2016-10-23T10:46:38.112Z,1580
2016-10-23T10:47:38.131Z,1596
2016-10-23T10:48:38.143Z,1620
2016-10-23T10:49:38.164Z,1616
2016-10-23T10:50:38.187Z,1564
2016-10-23T10:51:38.198Z,1520
2016-10-23T10:52:38.229Z,1512
2016-10-23T10:53:38.239Z,1516
2016-10-23T10:54:38.286Z,1548
2016-10-23T10:55:38.272Z,1568
2016-10-23T10:56:38.289Z,1552
2016-10-23T10:57:38.344Z,1548
2016-10-23T10:58:38.323Z,1572
2016-10-23T10:59:38.343Z,1616
2016-10-23T11:00:38.395Z,1624
2016-10-23T11:01:38.377Z,1600
2016-10-23T11:02:38.396Z,1580
2016-10-23T11:03:38.410Z,1580
2016-10-23T11:04:38.433Z,1640
2016-10-23T11:05:38.451Z,1676
2016-10-23T11:06:38.475Z,1696
2016-10-23T11:07:38.485Z,1676
2016-10-23T11:08:38.535Z,1660
2016-10-23T11:09:38.523Z,1700
2016-10-23T11:10:38.565Z,1700
2016-10-23T11:11:38.563Z,1704
2016-10-23T11:12:38.580Z,1756
2016-10-23T11:13:38.599Z,1788
2016-10-23T11:14:38.612Z,1760
2016-10-23T11:15:38.633Z,1740
2016-10-23T11:16:38.663Z,1748
2016-10-23T11:17:38.676Z,1764
2016-10-23T11:18:38.684Z,1752
2016-10-23T11:19:38.705Z,1724
2016-10-23T11:20:38.719Z,1716
2016-10-23T11:21:38.739Z,1740
2016-10-23T11:22:38.758Z,1788
2016-10-23T11:23:38.774Z,1796
2016-10-23T11:24:38.793Z,1796
2016-10-23T11:25:38.809Z,1808
2016-10-23T11:26:38.843Z,1828
2016-10-23T11:27:38.844Z,1844
2016-10-23T11:28:38.866Z,1856
2016-10-23T11:29:38.918Z,1808
2016-10-23T11:30:38.911Z,1720
2016-10-23T11:31:38.915Z,1688
2016-10-23T11:32:38.939Z,1708
2016-10-23T11:33:38.953Z,1716
2016-10-23T11:34:38.971Z,1756
2016-10-23T11:35:38.996Z,1776
2016-10-23T11:36:39.085Z,1804
2016-10-23T11:37:39.067Z,1916
2016-10-23T11:38:39.061Z,1840
2016-10-23T11:39:39.073Z,1848
2016-10-23T11:40:39.089Z,1880
2016-10-23T11:41:39.104Z,1976
2016-10-23T11:42:39.116Z,1932
2016-10-23T11:43:39.138Z,2012
2016-10-23T11:44:39.484Z,2032
2016-10-23T11:45:39.182Z,1924
2016-10-23T11:46:39.189Z,1852
2016-10-23T11:47:39.712Z,1764
2016-10-23T11:48:39.232Z,1844
2016-10-23T11:49:39.250Z,1860
2016-10-23T11:50:39.286Z,1876
2016-10-23T11:51:39.359Z,1836
2016-10-23T11:52:39.305Z,1804
2016-10-23T11:53:39.328Z,1684
2016-10-23T11:54:39.337Z,1536
2016-10-23T11:55:39.398Z,1400
2016-10-23T11:56:39.384Z,1364
2016-10-23T11:57:39.404Z,1416
2016-10-23T11:58:39.414Z,1428
2016-10-23T11:59:39.435Z,1424
2016-10-23T12:00:39.451Z,1400
2016-10-23T12:01:39.471Z,1380
2016-10-23T12:02:39.488Z,1372
2016-10-23T12:03:39.507Z,1376
2016-10-23T12:04:39.527Z,1412
2016-10-23T12:05:39.554Z,1488
2016-10-23T12:06:39.570Z,1548
2016-10-23T12:07:39.594Z,1552
2016-10-23T12:08:39.605Z,1520
2016-10-23T12:09:39.625Z,1516
2016-10-23T12:10:39.685Z,1512
2016-10-23T12:11:39.666Z,1540
2016-10-23T12:12:39.679Z,1580
2016-10-23T12:13:39.705Z,1616
2016-10-23T12:14:39.717Z,1620
2016-10-23T12:15:39.739Z,1656
2016-10-23T12:16:39.755Z,1660
2016-10-23T12:17:39.887Z,1668
2016-10-23T12:18:39.790Z,1672
2016-10-23T12:19:39.810Z,1652
2016-10-23T12:20:39.945Z,1628
2016-10-23T12:21:39.844Z,1616
2016-10-23T12:22:39.869Z,1636
2016-10-23T12:23:39.884Z,1632
2016-10-23T12:24:39.904Z,1628
2016-10-23T12:25:40.249Z,1628
2016-10-23T12:26:39.938Z,1576
2016-10-23T12:27:39.959Z,1540
2016-10-23T12:28:39.980Z,1572
2016-10-23T12:29:40.001Z,1612
2016-10-23T12:30:40.021Z,1608
2016-10-23T12:31:40.040Z,1604
2016-10-23T12:32:40.055Z,1572
2016-10-23T12:33:40.072Z,1572
2016-10-23T12:34:40.104Z,1588
2016-10-23T12:35:40.114Z,1600
2016-10-23T12:36:40.128Z,1612
2016-10-23T12:37:40.145Z,1584
2016-10-23T12:38:40.186Z,1532
2016-10-23T12:39:40.190Z,1508
2016-10-23T12:40:40.208Z,1496
2016-10-23T12:41:40.236Z,1476
2016-10-23T12:42:40.245Z,1452
2016-10-23T12:43:40.263Z,1488
2016-10-23T12:44:40.284Z,1536
2016-10-23T12:45:40.307Z,1548
2016-10-23T12:46:40.322Z,1504
2016-10-23T12:47:40.343Z,1492
2016-10-23T12:48:40.404Z,1500
2016-10-23T12:49:40.373Z,1524
2016-10-23T12:50:40.490Z,1544
2016-10-23T12:51:40.428Z,1540
2016-10-23T12:52:40.448Z,1524
2016-10-23T12:53:40.458Z,1512
2016-10-23T12:54:40.507Z,1540
2016-10-23T12:55:40.534Z,1564
2016-10-23T12:56:40.521Z,1548
2016-10-23T12:57:40.531Z,1524
2016-10-23T12:58:40.553Z,1540
2016-10-23T12:59:40.578Z,1532
2016-10-23T13:00:40.595Z,1512
2016-10-23T13:01:40.605Z,1508
2016-10-23T13:02:40.637Z,1488
2016-10-23T13:03:40.647Z,1456
2016-10-23T13:04:40.673Z,1464
2016-10-23T13:05:40.690Z,1488
2016-10-23T13:06:40.712Z,1548
2016-10-23T13:07:40.767Z,1616
2016-10-23T13:08:40.764Z,1656
2016-10-23T13:09:40.765Z,1608
2016-10-23T13:10:40.785Z,1580
2016-10-23T13:11:40.799Z,1576
2016-10-23T13:12:40.827Z,1580
2016-10-23T13:13:40.853Z,1588
2016-10-23T13:14:40.862Z,1584
2016-10-23T13:15:40.911Z,1596
2016-10-23T13:16:41.218Z,1604
2016-10-23T13:17:40.919Z,1492
2016-10-23T13:18:40.948Z,1408
2016-10-23T13:19:40.997Z,1344
2016-10-23T13:20:40.988Z,1352
2016-10-23T13:21:41.028Z,1392
2016-10-23T13:22:41.052Z,1388
2016-10-23T13:23:41.045Z,1308
2016-10-23T13:24:41.052Z,1224
2016-10-23T13:25:41.075Z,1260
2016-10-23T13:26:41.089Z,1308
2016-10-23T13:27:41.112Z,1300
2016-10-23T13:28:41.131Z,1272
2016-10-23T13:29:41.164Z,1284
2016-10-23T13:30:41.176Z,1272
2016-10-23T13:31:41.194Z,1248
2016-10-23T13:32:41.245Z,1268
2016-10-23T13:33:41.229Z,1300
2016-10-23T13:34:41.264Z,1324
2016-10-23T13:35:41.385Z,1340
2016-10-23T13:36:41.290Z,1356
2016-10-23T13:37:41.422Z,1344
2016-10-23T13:38:41.333Z,1308
2016-10-23T13:39:41.341Z,1272
2016-10-23T13:40:41.368Z,1228
2016-10-23T13:41:41.387Z,1192
2016-10-23T13:42:41.408Z,1148
2016-10-23T13:43:41.434Z,1188
2016-10-23T13:44:41.447Z,1224
2016-10-23T13:45:41.463Z,1204
2016-10-23T13:46:41.486Z,1172
2016-10-23T13:47:41.506Z,1160
2016-10-23T13:48:41.520Z,1140
2016-10-23T13:49:41.640Z,1108
2016-10-23T13:50:41.576Z,1084
2016-10-23T13:51:41.584Z,1128
2016-10-23T13:52:41.609Z,1104
2016-10-23T13:53:41.633Z,1056
2016-10-23T13:54:41.635Z,1040
2016-10-23T13:55:41.660Z,1048
2016-10-23T13:56:41.677Z,1064
2016-10-23T13:57:41.695Z,1076
2016-10-23T13:58:41.716Z,1100
2016-10-23T13:59:41.735Z,1128